sensor_id;sensor_type;location;lat;lon;timestamp;P1;durP1;ratioP1;P2;durP2;ratioP2
7215;SDS011;3649;48.798;9.798;2023-05-10T00:00:21;2.13;;;1.60;;
7215;SDS011;3649;48.798;9.798;2023-05-10T00:02:48;1.70;;;1.60;;
7215;SDS011;3649;48.798;9.798;2023-05-10T00:05:16;2.40;;;1.80;;
7215;SDS011;3649;48.798;9.798;2023-05-10T00:07:43;1.80;;;1.70;;
7215;SDS011;3649;48.798;9.798;2023-05-10T00:10:13;3.43;;;1.60;;
7215;SDS011;3649;48.798;9.798;2023-05-10T00:12:41;1.60;;;1.50;;
7215;SDS011;3649;48.798;9.798;2023-05-10T00:15:08;2.77;;;1.37;;
7215;SDS011;3649;48.798;9.798;2023-05-10T00:17:36;1.50;;;1.40;;
7215;SDS011;3649;48.798;9.798;2023-05-10T00:20:03;1.83;;;1.67;;
7215;SDS011;3649;48.798;9.798;2023-05-10T00:22:31;1.37;;;1.37;;
7215;SDS011;3649;48.798;9.798;2023-05-10T00:24:58;2.13;;;1.83;;
7215;SDS011;3649;48.798;9.798;2023-05-10T00:27:25;1.63;;;1.53;;
7215;SDS011;3649;48.798;9.798;2023-05-10T00:29:52;1.87;;;1.73;;
7215;SDS011;3649;48.798;9.798;2023-05-10T00:32:19;2.40;;;1.80;;
7215;SDS011;3649;48.798;9.798;2023-05-10T00:34:47;8.97;;;2.30;;
7215;SDS011;3649;48.798;9.798;2023-05-10T00:37:13;4.00;;;2.10;;
7215;SDS011;3649;48.798;9.798;2023-05-10T00:39:40;2.03;;;1.83;;
7215;SDS011;3649;48.798;9.798;2023-05-10T00:42:07;1.63;;;1.53;;
7215;SDS011;3649;48.798;9.798;2023-05-10T00:44:34;2.77;;;1.90;;
7215;SDS011;3649;48.798;9.798;2023-05-10T00:47:01;1.97;;;1.80;;
7215;SDS011;3649;48.798;9.798;2023-05-10T00:49:27;1.70;;;1.60;;
7215;SDS011;3649;48.798;9.798;2023-05-10T00:51:55;2.50;;;1.77;;
7215;SDS011;3649;48.798;9.798;2023-05-10T00:54:22;2.37;;;1.40;;
7215;SDS011;3649;48.798;9.798;2023-05-10T00:56:49;1.60;;;1.53;;
7215;SDS011;3649;48.798;9.798;2023-05-10T00:59:16;6.53;;;1.63;;
7215;SDS011;3649;48.798;9.798;2023-05-10T01:01:47;1.23;;;1.23;;
7215;SDS011;3649;48.798;9.798;2023-05-10T01:04:14;3.63;;;1.73;;
7215;SDS011;3649;48.798;9.798;2023-05-10T01:06:41;3.60;;;1.57;;
7215;SDS011;3649;48.798;9.798;2023-05-10T01:09:09;2.40;;;1.63;;
7215;SDS011;3649;48.798;9.798;2023-05-10T01:11:36;2.53;;;1.30;;
7215;SDS011;3649;48.798;9.798;2023-05-10T01:14:04;0.97;;;0.97;;
7215;SDS011;3649;48.798;9.798;2023-05-10T01:16:34;0.90;;;0.90;;
7215;SDS011;3649;48.798;9.798;2023-05-10T01:19:26;1.60;;;1.00;;
7215;SDS011;3649;48.798;9.798;2023-05-10T01:21:56;0.63;;;0.63;;
7215;SDS011;3649;48.798;9.798;2023-05-10T01:30:55;0.70;;;0.70;;
7215;SDS011;3649;48.798;9.798;2023-05-10T01:38:42;2.10;;;0.90;;
7215;SDS011;3649;48.798;9.798;2023-05-10T01:41:23;0.80;;;0.80;;
7215;SDS011;3649;48.798;9.798;2023-05-10T01:46:52;2.30;;;0.70;;
7215;SDS011;3649;48.798;9.798;2023-05-10T01:49:29;0.80;;;0.80;;
7215;SDS011;3649;48.798;9.798;2023-05-10T01:52:04;1.00;;;0.73;;
7215;SDS011;3649;48.798;9.798;2023-05-10T01:54:34;1.27;;;0.70;;
7215;SDS011;3649;48.798;9.798;2023-05-10T01:57:05;1.43;;;0.80;;
7215;SDS011;3649;48.798;9.798;2023-05-10T01:59:35;0.70;;;0.70;;
7215;SDS011;3649;48.798;9.798;2023-05-10T02:02:07;1.40;;;1.27;;
7215;SDS011;3649;48.798;9.798;2023-05-10T02:04:38;1.57;;;0.90;;
7215;SDS011;3649;48.798;9.798;2023-05-10T02:07:06;0.70;;;0.70;;
7215;SDS011;3649;48.798;9.798;2023-05-10T02:09:35;0.67;;;0.67;;
7215;SDS011;3649;48.798;9.798;2023-05-10T02:12:03;0.70;;;0.70;;
7215;SDS011;3649;48.798;9.798;2023-05-10T02:14:33;1.13;;;0.70;;
7215;SDS011;3649;48.798;9.798;2023-05-10T02:17:02;0.97;;;0.80;;
7215;SDS011;3649;48.798;9.798;2023-05-10T02:19:32;0.70;;;0.70;;
7215;SDS011;3649;48.798;9.798;2023-05-10T02:22:00;0.70;;;0.70;;
7215;SDS011;3649;48.798;9.798;2023-05-10T02:24:28;0.70;;;0.70;;
7215;SDS011;3649;48.798;9.798;2023-05-10T02:26:55;0.60;;;0.60;;
7215;SDS011;3649;48.798;9.798;2023-05-10T02:29:23;0.80;;;0.80;;
7215;SDS011;3649;48.798;9.798;2023-05-10T02:31:54;1.00;;;1.00;;
7215;SDS011;3649;48.798;9.798;2023-05-10T02:34:22;1.57;;;1.27;;
7215;SDS011;3649;48.798;9.798;2023-05-10T02:36:50;1.87;;;0.80;;
7215;SDS011;3649;48.798;9.798;2023-05-10T02:39:21;0.73;;;0.73;;
7215;SDS011;3649;48.798;9.798;2023-05-10T02:41:50;1.27;;;0.80;;
7215;SDS011;3649;48.798;9.798;2023-05-10T02:44:18;0.90;;;0.90;;
7215;SDS011;3649;48.798;9.798;2023-05-10T02:46:46;0.80;;;0.80;;
7215;SDS011;3649;48.798;9.798;2023-05-10T02:49:14;0.80;;;0.80;;
7215;SDS011;3649;48.798;9.798;2023-05-10T02:51:42;0.97;;;0.87;;
7215;SDS011;3649;48.798;9.798;2023-05-10T02:54:15;1.00;;;0.90;;
7215;SDS011;3649;48.798;9.798;2023-05-10T02:56:50;1.60;;;0.80;;
7215;SDS011;3649;48.798;9.798;2023-05-10T02:59:19;1.33;;;1.20;;
7215;SDS011;3649;48.798;9.798;2023-05-10T03:01:46;1.00;;;1.00;;
7215;SDS011;3649;48.798;9.798;2023-05-10T03:04:13;0.97;;;0.97;;
7215;SDS011;3649;48.798;9.798;2023-05-10T03:06:41;1.30;;;1.30;;
7215;SDS011;3649;48.798;9.798;2023-05-10T03:09:08;4.37;;;1.07;;
7215;SDS011;3649;48.798;9.798;2023-05-10T03:17:41;1.33;;;1.23;;
7215;SDS011;3649;48.798;9.798;2023-05-10T03:20:48;1.20;;;1.10;;
7215;SDS011;3649;48.798;9.798;2023-05-10T03:23:35;1.10;;;1.10;;
7215;SDS011;3649;48.798;9.798;2023-05-10T03:26:13;1.13;;;1.10;;
7215;SDS011;3649;48.798;9.798;2023-05-10T03:28:49;2.07;;;1.20;;
7215;SDS011;3649;48.798;9.798;2023-05-10T03:31:16;1.20;;;1.10;;
7215;SDS011;3649;48.798;9.798;2023-05-10T03:33:47;1.37;;;1.20;;
7215;SDS011;3649;48.798;9.798;2023-05-10T03:36:15;1.20;;;1.20;;
7215;SDS011;3649;48.798;9.798;2023-05-10T03:38:42;1.00;;;1.00;;
7215;SDS011;3649;48.798;9.798;2023-05-10T03:41:09;2.23;;;1.90;;
7215;SDS011;3649;48.798;9.798;2023-05-10T03:43:35;1.93;;;1.47;;
7215;SDS011;3649;48.798;9.798;2023-05-10T03:46:03;1.37;;;1.20;;
7215;SDS011;3649;48.798;9.798;2023-05-10T03:48:31;1.10;;;1.10;;
7215;SDS011;3649;48.798;9.798;2023-05-10T03:50:59;1.10;;;1.00;;
7215;SDS011;3649;48.798;9.798;2023-05-10T03:53:26;1.30;;;1.20;;
7215;SDS011;3649;48.798;9.798;2023-05-10T03:55:53;1.30;;;1.20;;
7215;SDS011;3649;48.798;9.798;2023-05-10T03:58:19;2.67;;;1.50;;
7215;SDS011;3649;48.798;9.798;2023-05-10T04:00:47;2.27;;;1.40;;
7215;SDS011;3649;48.798;9.798;2023-05-10T04:03:14;1.10;;;0.93;;
7215;SDS011;3649;48.798;9.798;2023-05-10T04:05:41;1.13;;;1.13;;
7215;SDS011;3649;48.798;9.798;2023-05-10T04:08:08;0.90;;;0.90;;
7215;SDS011;3649;48.798;9.798;2023-05-10T04:10:35;6.13;;;1.00;;
7215;SDS011;3649;48.798;9.798;2023-05-10T04:13:02;2.03;;;1.00;;
7215;SDS011;3649;48.798;9.798;2023-05-10T04:15:29;1.07;;;1.07;;
7215;SDS011;3649;48.798;9.798;2023-05-10T04:17:56;1.17;;;1.17;;
7215;SDS011;3649;48.798;9.798;2023-05-10T04:20:22;1.00;;;1.00;;
7215;SDS011;3649;48.798;9.798;2023-05-10T04:22:49;2.13;;;1.00;;
7215;SDS011;3649;48.798;9.798;2023-05-10T04:25:16;1.20;;;1.20;;
7215;SDS011;3649;48.798;9.798;2023-05-10T04:27:43;1.00;;;1.00;;
7215;SDS011;3649;48.798;9.798;2023-05-10T04:30:10;1.17;;;1.17;;
7215;SDS011;3649;48.798;9.798;2023-05-10T04:32:37;1.27;;;1.00;;
7215;SDS011;3649;48.798;9.798;2023-05-10T04:35:04;0.90;;;0.90;;
7215;SDS011;3649;48.798;9.798;2023-05-10T04:37:31;1.00;;;1.00;;
7215;SDS011;3649;48.798;9.798;2023-05-10T04:39:58;2.87;;;1.27;;
7215;SDS011;3649;48.798;9.798;2023-05-10T04:42:26;1.20;;;1.20;;
7215;SDS011;3649;48.798;9.798;2023-05-10T04:44:53;2.27;;;1.43;;
7215;SDS011;3649;48.798;9.798;2023-05-10T04:47:20;1.47;;;1.20;;
7215;SDS011;3649;48.798;9.798;2023-05-10T04:49:46;1.57;;;1.47;;
7215;SDS011;3649;48.798;9.798;2023-05-10T04:52:13;3.03;;;1.20;;
7215;SDS011;3649;48.798;9.798;2023-05-10T04:54:41;2.27;;;1.20;;
7215;SDS011;3649;48.798;9.798;2023-05-10T04:57:08;3.17;;;1.40;;
7215;SDS011;3649;48.798;9.798;2023-05-10T04:59:35;1.30;;;1.30;;
7215;SDS011;3649;48.798;9.798;2023-05-10T05:02:03;1.00;;;1.00;;
7215;SDS011;3649;48.798;9.798;2023-05-10T05:04:31;1.10;;;1.10;;
7215;SDS011;3649;48.798;9.798;2023-05-10T05:06:58;2.50;;;1.30;;
7215;SDS011;3649;48.798;9.798;2023-05-10T05:09:25;1.33;;;1.23;;
7215;SDS011;3649;48.798;9.798;2023-05-10T05:11:51;1.20;;;1.20;;
7215;SDS011;3649;48.798;9.798;2023-05-10T05:14:18;1.10;;;1.10;;
7215;SDS011;3649;48.798;9.798;2023-05-10T05:16:47;0.90;;;0.90;;
7215;SDS011;3649;48.798;9.798;2023-05-10T05:19:14;1.00;;;1.00;;
7215;SDS011;3649;48.798;9.798;2023-05-10T05:21:41;1.30;;;1.30;;
7215;SDS011;3649;48.798;9.798;2023-05-10T05:24:08;2.00;;;1.77;;
7215;SDS011;3649;48.798;9.798;2023-05-10T05:26:36;1.20;;;1.20;;
7215;SDS011;3649;48.798;9.798;2023-05-10T05:29:03;1.20;;;1.10;;
7215;SDS011;3649;48.798;9.798;2023-05-10T05:31:30;1.10;;;1.10;;
7215;SDS011;3649;48.798;9.798;2023-05-10T05:33:57;3.80;;;1.20;;
7215;SDS011;3649;48.798;9.798;2023-05-10T05:36:24;1.60;;;1.40;;
7215;SDS011;3649;48.798;9.798;2023-05-10T05:38:51;1.33;;;1.33;;
7215;SDS011;3649;48.798;9.798;2023-05-10T05:41:17;1.43;;;1.30;;
7215;SDS011;3649;48.798;9.798;2023-05-10T05:43:44;1.50;;;1.40;;
7215;SDS011;3649;48.798;9.798;2023-05-10T05:46:11;1.30;;;1.20;;
7215;SDS011;3649;48.798;9.798;2023-05-10T05:48:38;1.73;;;1.50;;
7215;SDS011;3649;48.798;9.798;2023-05-10T05:51:05;1.23;;;1.23;;
7215;SDS011;3649;48.798;9.798;2023-05-10T05:53:33;1.37;;;1.20;;
7215;SDS011;3649;48.798;9.798;2023-05-10T05:56:00;4.77;;;1.40;;
7215;SDS011;3649;48.798;9.798;2023-05-10T05:58:27;4.80;;;1.60;;
7215;SDS011;3649;48.798;9.798;2023-05-10T06:00:54;3.17;;;1.33;;
7215;SDS011;3649;48.798;9.798;2023-05-10T06:03:21;1.80;;;1.47;;
7215;SDS011;3649;48.798;9.798;2023-05-10T06:05:48;1.90;;;1.80;;
7215;SDS011;3649;48.798;9.798;2023-05-10T06:08:15;3.60;;;1.33;;
7215;SDS011;3649;48.798;9.798;2023-05-10T06:10:42;1.40;;;1.30;;
7215;SDS011;3649;48.798;9.798;2023-05-10T06:13:09;4.50;;;1.57;;
7215;SDS011;3649;48.798;9.798;2023-05-10T06:15:36;1.30;;;1.20;;
7215;SDS011;3649;48.798;9.798;2023-05-10T06:18:03;2.80;;;1.20;;
7215;SDS011;3649;48.798;9.798;2023-05-10T06:20:30;2.53;;;1.43;;
7215;SDS011;3649;48.798;9.798;2023-05-10T06:22:57;1.90;;;1.77;;
7215;SDS011;3649;48.798;9.798;2023-05-10T06:25:25;1.73;;;1.10;;
7215;SDS011;3649;48.798;9.798;2023-05-10T06:27:52;1.13;;;1.13;;
7215;SDS011;3649;48.798;9.798;2023-05-10T06:30:24;1.20;;;1.20;;
7215;SDS011;3649;48.798;9.798;2023-05-10T06:32:54;3.10;;;1.37;;
7215;SDS011;3649;48.798;9.798;2023-05-10T06:35:22;2.77;;;1.50;;
7215;SDS011;3649;48.798;9.798;2023-05-10T06:37:48;1.30;;;1.30;;
7215;SDS011;3649;48.798;9.798;2023-05-10T06:40:15;1.50;;;1.30;;
7215;SDS011;3649;48.798;9.798;2023-05-10T06:42:43;1.63;;;1.30;;
7215;SDS011;3649;48.798;9.798;2023-05-10T06:45:11;1.30;;;1.20;;
7215;SDS011;3649;48.798;9.798;2023-05-10T06:47:38;2.30;;;1.80;;
7215;SDS011;3649;48.798;9.798;2023-05-10T06:50:06;3.03;;;1.20;;
7215;SDS011;3649;48.798;9.798;2023-05-10T06:52:34;2.30;;;1.40;;
7215;SDS011;3649;48.798;9.798;2023-05-10T06:55:02;2.20;;;1.20;;
7215;SDS011;3649;48.798;9.798;2023-05-10T06:57:30;2.90;;;1.10;;
7215;SDS011;3649;48.798;9.798;2023-05-10T06:59:58;1.93;;;1.30;;
7215;SDS011;3649;48.798;9.798;2023-05-10T07:02:25;3.13;;;1.40;;
7215;SDS011;3649;48.798;9.798;2023-05-10T07:04:53;2.93;;;1.40;;
7215;SDS011;3649;48.798;9.798;2023-05-10T07:07:20;1.80;;;1.17;;
7215;SDS011;3649;48.798;9.798;2023-05-10T07:09:47;1.63;;;1.27;;
7215;SDS011;3649;48.798;9.798;2023-05-10T07:12:15;1.30;;;1.23;;
7215;SDS011;3649;48.798;9.798;2023-05-10T07:14:42;2.37;;;1.33;;
7215;SDS011;3649;48.798;9.798;2023-05-10T07:17:09;1.40;;;1.00;;
7215;SDS011;3649;48.798;9.798;2023-05-10T07:19:36;1.00;;;1.00;;
7215;SDS011;3649;48.798;9.798;2023-05-10T07:22:03;1.57;;;1.20;;
7215;SDS011;3649;48.798;9.798;2023-05-10T07:24:30;1.40;;;1.30;;
7215;SDS011;3649;48.798;9.798;2023-05-10T07:26:57;2.07;;;1.47;;
7215;SDS011;3649;48.798;9.798;2023-05-10T07:29:24;1.97;;;1.60;;
7215;SDS011;3649;48.798;9.798;2023-05-10T07:31:51;5.70;;;1.63;;
7215;SDS011;3649;48.798;9.798;2023-05-10T07:34:22;2.83;;;1.50;;
7215;SDS011;3649;48.798;9.798;2023-05-10T07:36:49;1.60;;;1.50;;
7215;SDS011;3649;48.798;9.798;2023-05-10T07:39:16;2.60;;;1.80;;
7215;SDS011;3649;48.798;9.798;2023-05-10T07:41:52;1.77;;;1.60;;
7215;SDS011;3649;48.798;9.798;2023-05-10T07:44:19;1.80;;;1.70;;
7215;SDS011;3649;48.798;9.798;2023-05-10T07:46:47;4.07;;;2.07;;
7215;SDS011;3649;48.798;9.798;2023-05-10T07:49:14;1.77;;;1.67;;
7215;SDS011;3649;48.798;9.798;2023-05-10T07:51:42;2.17;;;1.80;;
7215;SDS011;3649;48.798;9.798;2023-05-10T07:54:11;2.20;;;2.07;;
7215;SDS011;3649;48.798;9.798;2023-05-10T07:56:39;5.13;;;1.90;;
7215;SDS011;3649;48.798;9.798;2023-05-10T07:59:14;1.97;;;1.83;;
7215;SDS011;3649;48.798;9.798;2023-05-10T08:01:41;2.20;;;1.30;;
7215;SDS011;3649;48.798;9.798;2023-05-10T08:04:09;2.27;;;1.60;;
7215;SDS011;3649;48.798;9.798;2023-05-10T08:06:36;2.03;;;1.93;;
7215;SDS011;3649;48.798;9.798;2023-05-10T08:09:03;2.83;;;2.07;;
7215;SDS011;3649;48.798;9.798;2023-05-10T08:11:30;4.20;;;2.07;;
7215;SDS011;3649;48.798;9.798;2023-05-10T08:13:59;2.20;;;2.00;;
7215;SDS011;3649;48.798;9.798;2023-05-10T08:16:26;3.23;;;1.87;;
7215;SDS011;3649;48.798;9.798;2023-05-10T08:18:53;1.63;;;1.50;;
7215;SDS011;3649;48.798;9.798;2023-05-10T08:21:21;2.10;;;1.57;;
7215;SDS011;3649;48.798;9.798;2023-05-10T08:23:48;2.30;;;1.80;;
7215;SDS011;3649;48.798;9.798;2023-05-10T08:26:15;1.70;;;1.60;;
7215;SDS011;3649;48.798;9.798;2023-05-10T08:28:42;1.50;;;1.40;;
7215;SDS011;3649;48.798;9.798;2023-05-10T08:31:09;3.80;;;1.60;;
7215;SDS011;3649;48.798;9.798;2023-05-10T08:33:36;1.30;;;1.30;;
7215;SDS011;3649;48.798;9.798;2023-05-10T08:36:03;1.20;;;1.10;;
7215;SDS011;3649;48.798;9.798;2023-05-10T08:38:30;1.73;;;1.63;;
7215;SDS011;3649;48.798;9.798;2023-05-10T08:40:57;2.70;;;2.50;;
7215;SDS011;3649;48.798;9.798;2023-05-10T08:43:26;1.53;;;1.43;;
7215;SDS011;3649;48.798;9.798;2023-05-10T08:45:59;1.40;;;1.30;;
7215;SDS011;3649;48.798;9.798;2023-05-10T08:48:29;1.27;;;1.27;;
7215;SDS011;3649;48.798;9.798;2023-05-10T08:50:58;1.40;;;1.30;;
7215;SDS011;3649;48.798;9.798;2023-05-10T08:53:26;1.37;;;1.30;;
7215;SDS011;3649;48.798;9.798;2023-05-10T08:55:54;1.80;;;1.30;;
7215;SDS011;3649;48.798;9.798;2023-05-10T08:58:23;2.00;;;1.00;;
7215;SDS011;3649;48.798;9.798;2023-05-10T09:00:51;1.40;;;1.30;;
7215;SDS011;3649;48.798;9.798;2023-05-10T09:03:19;1.77;;;1.67;;
7215;SDS011;3649;48.798;9.798;2023-05-10T09:05:46;1.87;;;1.33;;
7215;SDS011;3649;48.798;9.798;2023-05-10T09:08:13;2.60;;;1.30;;
7215;SDS011;3649;48.798;9.798;2023-05-10T09:10:43;1.47;;;1.30;;
7215;SDS011;3649;48.798;9.798;2023-05-10T09:13:12;1.17;;;1.17;;
7215;SDS011;3649;48.798;9.798;2023-05-10T09:15:41;1.70;;;1.60;;
7215;SDS011;3649;48.798;9.798;2023-05-10T09:18:09;1.57;;;1.47;;
7215;SDS011;3649;48.798;9.798;2023-05-10T09:20:36;3.17;;;1.50;;
7215;SDS011;3649;48.798;9.798;2023-05-10T09:23:03;1.17;;;1.17;;
7215;SDS011;3649;48.798;9.798;2023-05-10T09:25:31;3.27;;;1.40;;
7215;SDS011;3649;48.798;9.798;2023-05-10T09:28:01;4.27;;;1.43;;
7215;SDS011;3649;48.798;9.798;2023-05-10T09:30:29;3.07;;;2.00;;
7215;SDS011;3649;48.798;9.798;2023-05-10T09:32:58;1.40;;;1.40;;
7215;SDS011;3649;48.798;9.798;2023-05-10T09:35:27;1.70;;;1.20;;
7215;SDS011;3649;48.798;9.798;2023-05-10T09:37:56;1.53;;;1.43;;
7215;SDS011;3649;48.798;9.798;2023-05-10T09:40:26;2.00;;;1.30;;
7215;SDS011;3649;48.798;9.798;2023-05-10T09:42:56;1.70;;;1.00;;
7215;SDS011;3649;48.798;9.798;2023-05-10T09:45:31;2.33;;;1.37;;
7215;SDS011;3649;48.798;9.798;2023-05-10T09:48:02;1.27;;;1.23;;
7215;SDS011;3649;48.798;9.798;2023-05-10T09:50:29;1.83;;;1.40;;
7215;SDS011;3649;48.798;9.798;2023-05-10T09:52:57;1.47;;;1.10;;
7215;SDS011;3649;48.798;9.798;2023-05-10T09:58:07;1.13;;;1.03;;
7215;SDS011;3649;48.798;9.798;2023-05-10T10:00:38;1.20;;;1.10;;
7215;SDS011;3649;48.798;9.798;2023-05-10T10:03:07;1.30;;;1.20;;
7215;SDS011;3649;48.798;9.798;2023-05-10T10:05:42;2.63;;;1.33;;
7215;SDS011;3649;48.798;9.798;2023-05-10T10:08:10;2.00;;;1.20;;
7215;SDS011;3649;48.798;9.798;2023-05-10T10:10:38;5.10;;;1.40;;
7215;SDS011;3649;48.798;9.798;2023-05-10T10:13:12;1.10;;;1.10;;
7215;SDS011;3649;48.798;9.798;2023-05-10T10:15:39;1.10;;;1.10;;
7215;SDS011;3649;48.798;9.798;2023-05-10T10:18:08;1.20;;;1.20;;
7215;SDS011;3649;48.798;9.798;2023-05-10T10:20:40;1.90;;;1.20;;
7215;SDS011;3649;48.798;9.798;2023-05-10T10:23:08;1.00;;;1.00;;
7215;SDS011;3649;48.798;9.798;2023-05-10T10:25:35;1.33;;;0.90;;
7215;SDS011;3649;48.798;9.798;2023-05-10T10:30:48;1.00;;;1.00;;
7215;SDS011;3649;48.798;9.798;2023-05-10T10:33:33;3.00;;;1.40;;
7215;SDS011;3649;48.798;9.798;2023-05-10T10:36:23;1.10;;;1.10;;
7215;SDS011;3649;48.798;9.798;2023-05-10T10:39:00;1.07;;;1.07;;
7215;SDS011;3649;48.798;9.798;2023-05-10T10:41:33;1.00;;;1.00;;
7215;SDS011;3649;48.798;9.798;2023-05-10T10:49:32;1.07;;;1.00;;
7215;SDS011;3649;48.798;9.798;2023-05-10T10:52:23;2.90;;;1.17;;
7215;SDS011;3649;48.798;9.798;2023-05-10T10:57:24;1.10;;;1.10;;
7215;SDS011;3649;48.798;9.798;2023-05-10T11:00:17;3.43;;;1.10;;
7215;SDS011;3649;48.798;9.798;2023-05-10T11:05:40;1.17;;;1.10;;
7215;SDS011;3649;48.798;9.798;2023-05-10T11:13:45;1.00;;;1.00;;
7215;SDS011;3649;48.798;9.798;2023-05-10T11:21:30;1.53;;;1.07;;
7215;SDS011;3649;48.798;9.798;2023-05-10T11:23:59;1.40;;;1.30;;
7215;SDS011;3649;48.798;9.798;2023-05-10T11:26:33;0.90;;;0.90;;
7215;SDS011;3649;48.798;9.798;2023-05-10T11:29:01;1.23;;;1.10;;
7215;SDS011;3649;48.798;9.798;2023-05-10T11:31:30;1.87;;;1.20;;
7215;SDS011;3649;48.798;9.798;2023-05-10T11:33:58;2.00;;;1.63;;
7215;SDS011;3649;48.798;9.798;2023-05-10T11:36:26;2.03;;;1.20;;
7215;SDS011;3649;48.798;9.798;2023-05-10T11:38:55;1.30;;;1.10;;
7215;SDS011;3649;48.798;9.798;2023-05-10T11:41:23;2.00;;;1.33;;
7215;SDS011;3649;48.798;9.798;2023-05-10T11:43:51;1.77;;;1.30;;
7215;SDS011;3649;48.798;9.798;2023-05-10T11:46:20;1.13;;;1.13;;
7215;SDS011;3649;48.798;9.798;2023-05-10T11:48:49;2.90;;;1.20;;
7215;SDS011;3649;48.798;9.798;2023-05-10T11:51:24;3.63;;;1.30;;
7215;SDS011;3649;48.798;9.798;2023-05-10T11:53:54;2.70;;;1.30;;
7215;SDS011;3649;48.798;9.798;2023-05-10T11:56:22;2.30;;;1.10;;
7215;SDS011;3649;48.798;9.798;2023-05-10T11:58:56;1.07;;;1.07;;
7215;SDS011;3649;48.798;9.798;2023-05-10T12:01:24;0.97;;;0.97;;
7215;SDS011;3649;48.798;9.798;2023-05-10T12:03:53;0.90;;;0.90;;
7215;SDS011;3649;48.798;9.798;2023-05-10T12:06:21;0.90;;;0.90;;
7215;SDS011;3649;48.798;9.798;2023-05-10T12:08:48;1.30;;;0.93;;
7215;SDS011;3649;48.798;9.798;2023-05-10T12:11:24;3.50;;;1.10;;
7215;SDS011;3649;48.798;9.798;2023-05-10T12:13:51;0.90;;;0.90;;
7215;SDS011;3649;48.798;9.798;2023-05-10T12:16:19;0.80;;;0.80;;
7215;SDS011;3649;48.798;9.798;2023-05-10T12:18:48;3.23;;;1.03;;
7215;SDS011;3649;48.798;9.798;2023-05-10T12:21:22;1.97;;;1.20;;
7215;SDS011;3649;48.798;9.798;2023-05-10T12:23:52;1.73;;;1.00;;
7215;SDS011;3649;48.798;9.798;2023-05-10T12:26:23;0.93;;;0.93;;
7215;SDS011;3649;48.798;9.798;2023-05-10T12:28:55;1.70;;;1.40;;
7215;SDS011;3649;48.798;9.798;2023-05-10T12:31:51;3.00;;;1.20;;
7215;SDS011;3649;48.798;9.798;2023-05-10T12:34:26;1.00;;;1.00;;
7215;SDS011;3649;48.798;9.798;2023-05-10T12:36:57;1.10;;;1.10;;
7215;SDS011;3649;48.798;9.798;2023-05-10T12:39:24;2.07;;;1.20;;
7215;SDS011;3649;48.798;9.798;2023-05-10T12:41:51;1.87;;;1.10;;
7215;SDS011;3649;48.798;9.798;2023-05-10T12:44:18;0.90;;;0.90;;
7215;SDS011;3649;48.798;9.798;2023-05-10T12:46:45;2.53;;;1.10;;
7215;SDS011;3649;48.798;9.798;2023-05-10T12:49:12;1.70;;;1.33;;
7215;SDS011;3649;48.798;9.798;2023-05-10T12:51:39;1.07;;;1.00;;
7215;SDS011;3649;48.798;9.798;2023-05-10T12:54:06;0.90;;;0.90;;
7215;SDS011;3649;48.798;9.798;2023-05-10T12:56:33;0.90;;;0.90;;
7215;SDS011;3649;48.798;9.798;2023-05-10T12:59:00;1.83;;;1.43;;
7215;SDS011;3649;48.798;9.798;2023-05-10T13:01:27;1.33;;;1.23;;
7215;SDS011;3649;48.798;9.798;2023-05-10T13:03:54;1.63;;;1.03;;
7215;SDS011;3649;48.798;9.798;2023-05-10T13:06:20;1.17;;;1.07;;
7215;SDS011;3649;48.798;9.798;2023-05-10T13:08:47;1.03;;;1.03;;
7215;SDS011;3649;48.798;9.798;2023-05-10T13:11:15;1.70;;;1.00;;
7215;SDS011;3649;48.798;9.798;2023-05-10T13:13:43;2.37;;;1.23;;
7215;SDS011;3649;48.798;9.798;2023-05-10T13:16:10;2.70;;;1.10;;
7215;SDS011;3649;48.798;9.798;2023-05-10T13:18:37;2.53;;;1.30;;
7215;SDS011;3649;48.798;9.798;2023-05-10T13:21:03;1.30;;;1.20;;
7215;SDS011;3649;48.798;9.798;2023-05-10T13:23:31;3.20;;;1.03;;
7215;SDS011;3649;48.798;9.798;2023-05-10T13:25:58;1.53;;;1.40;;
7215;SDS011;3649;48.798;9.798;2023-05-10T13:28:25;1.80;;;1.30;;
7215;SDS011;3649;48.798;9.798;2023-05-10T13:30:52;1.30;;;1.30;;
7215;SDS011;3649;48.798;9.798;2023-05-10T13:33:19;2.57;;;1.20;;
7215;SDS011;3649;48.798;9.798;2023-05-10T13:35:46;1.40;;;1.30;;
7215;SDS011;3649;48.798;9.798;2023-05-10T13:38:13;1.17;;;1.10;;
7215;SDS011;3649;48.798;9.798;2023-05-10T13:40:40;1.67;;;1.50;;
7215;SDS011;3649;48.798;9.798;2023-05-10T13:43:07;1.80;;;1.60;;
7215;SDS011;3649;48.798;9.798;2023-05-10T13:45:33;1.70;;;1.60;;
7215;SDS011;3649;48.798;9.798;2023-05-10T13:48:00;8.07;;;1.90;;
7215;SDS011;3649;48.798;9.798;2023-05-10T13:50:27;2.17;;;1.37;;
7215;SDS011;3649;48.798;9.798;2023-05-10T13:52:54;1.40;;;1.30;;
7215;SDS011;3649;48.798;9.798;2023-05-10T13:55:21;3.50;;;1.20;;
7215;SDS011;3649;48.798;9.798;2023-05-10T13:57:48;2.50;;;1.30;;
7215;SDS011;3649;48.798;9.798;2023-05-10T14:00:15;2.03;;;1.40;;
7215;SDS011;3649;48.798;9.798;2023-05-10T14:02:43;1.87;;;1.47;;
7215;SDS011;3649;48.798;9.798;2023-05-10T14:05:10;1.40;;;1.30;;
7215;SDS011;3649;48.798;9.798;2023-05-10T14:07:38;1.67;;;1.47;;
7215;SDS011;3649;48.798;9.798;2023-05-10T14:10:05;3.50;;;1.47;;
7215;SDS011;3649;48.798;9.798;2023-05-10T14:12:33;3.77;;;1.27;;
7215;SDS011;3649;48.798;9.798;2023-05-10T14:14:59;5.47;;;1.40;;
7215;SDS011;3649;48.798;9.798;2023-05-10T14:17:27;1.87;;;1.50;;
7215;SDS011;3649;48.798;9.798;2023-05-10T14:19:54;2.40;;;1.40;;
7215;SDS011;3649;48.798;9.798;2023-05-10T14:22:21;1.60;;;1.50;;
7215;SDS011;3649;48.798;9.798;2023-05-10T14:24:48;3.90;;;1.63;;
7215;SDS011;3649;48.798;9.798;2023-05-10T14:27:16;1.87;;;1.77;;
7215;SDS011;3649;48.798;9.798;2023-05-10T14:29:43;1.63;;;1.53;;
7215;SDS011;3649;48.798;9.798;2023-05-10T14:32:09;2.53;;;2.10;;
7215;SDS011;3649;48.798;9.798;2023-05-10T14:34:37;3.10;;;1.80;;
7215;SDS011;3649;48.798;9.798;2023-05-10T14:37:03;3.70;;;1.50;;
7215;SDS011;3649;48.798;9.798;2023-05-10T14:39:31;1.60;;;1.50;;
7215;SDS011;3649;48.798;9.798;2023-05-10T14:41:59;3.00;;;1.57;;
7215;SDS011;3649;48.798;9.798;2023-05-10T14:44:26;1.97;;;1.40;;
7215;SDS011;3649;48.798;9.798;2023-05-10T14:46:53;1.70;;;1.60;;
7215;SDS011;3649;48.798;9.798;2023-05-10T14:49:19;2.83;;;1.30;;
7215;SDS011;3649;48.798;9.798;2023-05-10T14:51:48;1.80;;;1.70;;
7215;SDS011;3649;48.798;9.798;2023-05-10T14:54:15;5.10;;;2.13;;
7215;SDS011;3649;48.798;9.798;2023-05-10T14:56:42;4.23;;;1.90;;
7215;SDS011;3649;48.798;9.798;2023-05-10T14:59:09;1.50;;;1.40;;
7215;SDS011;3649;48.798;9.798;2023-05-10T15:01:37;2.90;;;1.90;;
7215;SDS011;3649;48.798;9.798;2023-05-10T15:04:04;2.07;;;1.63;;
7215;SDS011;3649;48.798;9.798;2023-05-10T15:06:32;1.63;;;1.53;;
7215;SDS011;3649;48.798;9.798;2023-05-10T15:09:00;2.43;;;1.97;;
7215;SDS011;3649;48.798;9.798;2023-05-10T15:11:29;2.83;;;2.33;;
7215;SDS011;3649;48.798;9.798;2023-05-10T15:13:56;4.93;;;1.93;;
7215;SDS011;3649;48.798;9.798;2023-05-10T15:16:23;1.77;;;1.50;;
7215;SDS011;3649;48.798;9.798;2023-05-10T15:18:50;3.50;;;1.37;;
7215;SDS011;3649;48.798;9.798;2023-05-10T15:21:17;1.50;;;1.40;;
7215;SDS011;3649;48.798;9.798;2023-05-10T15:23:44;3.27;;;1.70;;
7215;SDS011;3649;48.798;9.798;2023-05-10T15:26:11;1.97;;;1.37;;
7215;SDS011;3649;48.798;9.798;2023-05-10T15:28:38;3.93;;;1.80;;
7215;SDS011;3649;48.798;9.798;2023-05-10T15:31:04;1.60;;;1.50;;
7215;SDS011;3649;48.798;9.798;2023-05-10T15:33:31;1.83;;;1.67;;
7215;SDS011;3649;48.798;9.798;2023-05-10T15:35:58;3.53;;;1.70;;
7215;SDS011;3649;48.798;9.798;2023-05-10T15:38:25;1.53;;;1.43;;
7215;SDS011;3649;48.798;9.798;2023-05-10T15:40:55;2.13;;;1.70;;
7215;SDS011;3649;48.798;9.798;2023-05-10T15:43:24;2.17;;;1.20;;
7215;SDS011;3649;48.798;9.798;2023-05-10T15:45:51;2.33;;;2.13;;
7215;SDS011;3649;48.798;9.798;2023-05-10T15:48:17;1.90;;;1.80;;
7215;SDS011;3649;48.798;9.798;2023-05-10T15:50:44;2.90;;;1.80;;
7215;SDS011;3649;48.798;9.798;2023-05-10T15:53:11;2.53;;;1.70;;
7215;SDS011;3649;48.798;9.798;2023-05-10T15:55:38;1.90;;;1.70;;
7215;SDS011;3649;48.798;9.798;2023-05-10T15:58:05;2.80;;;1.60;;
7215;SDS011;3649;48.798;9.798;2023-05-10T16:00:32;3.13;;;1.97;;
7215;SDS011;3649;48.798;9.798;2023-05-10T16:02:59;4.20;;;2.10;;
7215;SDS011;3649;48.798;9.798;2023-05-10T16:05:26;1.57;;;1.47;;
7215;SDS011;3649;48.798;9.798;2023-05-10T16:07:57;1.83;;;1.63;;
7215;SDS011;3649;48.798;9.798;2023-05-10T16:10:24;2.47;;;1.33;;